Latest Weather Observations for Cape Bruny AWS

IDT60801

Issued at 6:05 am EST Thursday 2 October 2014 (issued every 30 minutes, with the page automatically refreshed every 10 minutes)

About weather observations | Map of weather stations | Latest weather observations for TAS | Other Formats
Station Details ID: 094198 Name: CAPE BRUNY (CAPE BRUNY) Lat: -43.49 Lon: 147.14 Height: 59.7 m
Data from the previous 72 hours. | See also: Recent months at Cape Bruny AWS
Date/Time
EST
Temp
°C
App
Temp
°C
Dew
Point
Rel
Hum
%
Delta-T
°C
Wind Press
QNH
hPa
Press
MSL
hPa
Rain
since 9 am
mm
Dir
 
Spd
km/h
Gust
km/h
Spd
kts
Gust
kts
02/06:01am 11.3 2.8 7.0 75 2.1 W 41 59 22 32 1009.6 1009.6 0.6
02/06:00am 11.3 2.8 6.8 74 2.1 W 41 56 22 30 1009.6 1009.6 0.6
02/05:33am 10.8 0.6 7.1 78 1.8 W 50 69 27 37 1009.3 1009.3 0.6
02/05:30am 10.7 0.3 7.6 81 1.5 W 52 69 28 37 1009.3 1009.3 0.6
02/05:00am 10.1 -1.4 7.2 82 1.4 W 57 76 31 41 1009.1 1009.1 0.6
02/04:30am 11.4 0.5 7.3 76 2.0 WSW 54 65 29 35 1009.2 1009.2 0.6
02/04:11am 11.2 4.3 7.1 76 2.0 W 33 52 18 28 1008.8 1008.8 0.6
02/04:00am 10.9 2.8 7.0 77 1.9 W 39 54 21 29 1008.7 1008.7 0.6
02/03:30am 11.6 3.5 6.9 73 2.2 W 39 57 21 31 1009.0 1009.0 0.6
02/03:26am 11.5 3.4 7.0 74 2.2 W 39 57 21 31 1008.8 1008.8 0.6
02/03:00am 11.5 4.2 7.2 75 2.1 W 35 50 19 27 1008.7 1008.7 0.6
02/02:48am 11.7 5.6 6.4 70 2.5 W 28 46 15 25 1008.8 1008.8 0.6
02/02:30am 11.3 5.0 7.2 76 2.0 W 30 46 16 25 1008.9 1008.9 0.6
02/02:25am 11.6 5.6 6.9 73 2.2 W 28 46 15 25 1009.0 1009.0 0.6
02/02:22am 11.6 5.1 6.5 71 2.4 W 30 44 16 24 1008.9 1008.9 0.6
02/02:00am 11.1 7.5 6.8 75 2.0 W 15 22 8 12 1009.0 1009.0 0.6
02/01:30am 11.5 6.0 7.4 76 2.0 W 26 37 14 20 1009.3 1009.3 0.6
02/01:23am 11.9 5.9 7.2 73 2.3 WSW 28 37 15 20 1009.3 1009.3 0.6
02/01:00am 11.9 3.8 6.8 71 2.4 WNW 39 57 21 31 1008.9 1008.9 0.6
02/12:54am 11.8 4.8 6.7 71 2.4 WNW 33 57 18 31 1008.9 1008.9 0.6
02/12:30am 11.8 4.4 6.7 71 2.4 WNW 35 50 19 27 1009.2 1009.2 0.6
02/12:01am 11.8 3.2 6.7 71 2.4 WNW 41 61 22 33 1009.4 1009.4 0.6
02/12:00am 11.8 3.7 6.9 72 2.4 WNW 39 56 21 30 1009.4 1009.4 0.6
 
Date/Time
EST
Temp
°C
App
Temp
°C
Dew
Point
Rel
Hum
%
Delta-T
°C
Wind Press
QNH
hPa
Press
MSL
hPa
Rain
since 9 am
mm
Dir
 
Spd
km/h
Gust
km/h
Spd
kts
Gust
kts
01/11:45pm 11.7 4.3 6.8 72 2.3 WNW 35 54 19 29 1009.5 1009.5 0.6
01/11:30pm 11.8 3.3 6.9 72 2.3 WNW 41 57 22 31 1009.7 1009.7 0.6
01/11:09pm 11.9 4.2 7.0 72 2.4 WNW 37 57 20 31 1009.8 1009.8 0.6
01/11:00pm 12.0 4.1 6.3 68 2.7 NW 37 52 20 28 1010.0 1010.0 0.6
01/10:30pm 12.2 4.3 6.3 67 2.8 WNW 37 50 20 27 1010.7 1010.7 0.6
01/10:09pm 12.0 4.2 6.7 70 2.5 WNW 37 56 20 30 1010.9 1010.9 0.6
01/10:00pm 12.0 2.5 6.9 71 2.4 WNW 46 59 25 32 1010.9 1010.9 0.6
01/09:30pm 12.1 4.7 6.6 69 2.6 WNW 35 54 19 29 1010.8 1010.8 0.6
01/09:00pm 11.8 2.9 6.7 71 2.4 WNW 43 59 23 32 1010.7 1010.7 0.6
01/08:42pm 11.9 3.4 7.0 72 2.4 WNW 41 59 22 32 1010.8 1010.8 0.6
01/08:30pm 11.8 3.2 6.5 70 2.5 NW 41 56 22 30 1011.1 1011.1 0.6
01/08:00pm 11.4 2.8 6.3 71 2.4 WNW 41 56 22 30 1011.4 1011.4 0.6
01/07:30pm 10.9 3.3 5.7 70 2.4 NW 35 46 19 25 1011.8 1011.8 0.6
01/07:00pm 10.8 1.4 5.3 69 2.5 NW 44 57 24 31 1012.1 1012.1 0.6
01/06:30pm 10.6 1.7 5.2 69 2.5 WNW 41 54 22 29 1012.4 1012.4 0.6
01/06:11pm 10.4 1.8 4.8 68 2.5 NW 39 57 21 31 1012.6 1012.6 0.6
01/06:00pm 10.4 2.5 4.3 66 2.7 WNW 35 46 19 25 1013.0 1013.1 0.6
01/05:30pm 10.8 1.9 4.9 67 2.7 WNW 41 54 22 29 1013.2 1013.3 0.6
01/05:00pm 11.2 1.8 4.4 63 3.1 WNW 43 50 23 27 1013.3 1013.4 0.6
01/04:30pm 11.2 1.6 4.4 63 3.1 WNW 44 54 24 29 1013.0 1013.1 0.6
01/04:00pm 12.0 2.8 3.3 55 3.9 W 41 48 22 26 1012.8 1012.8 0.6
01/03:30pm 12.1 0.8 3.3 55 3.9 W 52 61 28 33 1013.0 1013.1 0.6
01/03:22pm 12.9 5.3 3.8 54 4.1 W 33 56 18 30 1013.0 1013.1 0.6
01/03:00pm 12.9 5.4 4.6 57 3.8 W 33 46 18 25 1012.8 1012.8 0.6
01/02:30pm 12.1 5.1 4.1 58 3.6 W 30 41 16 22 1012.9 1013.0 0.6
01/02:00pm 11.4 2.0 4.6 63 3.1 WSW 43 54 23 29 1013.4 1013.5 0.6
01/01:30pm 10.9 0.6 4.8 66 2.8 W 48 69 26 37 1013.1 1013.2 0.6
01/01:00pm 10.9 1.6 5.7 70 2.4 W 44 63 24 34 1013.3 1013.4 0.6
01/12:59pm 10.9 1.6 6.1 72 2.2 W 44 63 24 34 1013.3 1013.4 0.6
01/12:47pm 9.2 0.0 5.4 77 1.7 W 43 52 23 28 1013.2 1013.3 0.6
01/12:35pm 9.9 -2.9 4.5 69 2.4 WSW 61 69 33 37 1013.2 1013.3 0.6
01/12:32pm 10.9 1.5 4.4 64 2.9 W 43 61 23 33 1013.2 1013.3 0.6
01/12:30pm 11.4 2.7 4.2 61 3.2 W 39 54 21 29 1013.3 1013.4 0.6
01/12:00pm 10.5 0.6 4.6 67 2.7 W 46 59 25 32 1013.4 1013.5 0.6
01/11:30am 8.5 -2.1 5.1 79 1.5 W 50 78 27 42 1013.4 1013.5 0.6
01/11:25am 10.0 0.3 4.0 66 2.7 W 44 69 24 37 1013.3 1013.4 0.6
01/11:00am 10.4 2.6 6.7 78 1.7 W 37 50 20 27 1013.4 1013.5 0.6
01/10:30am 7.8 -0.1 4.6 80 1.4 W 35 52 19 28 1012.9 1013.0 0.6
01/10:14am 8.4 0.2 4.8 78 1.6 W 37 57 20 31 1013.1 1013.2 0.2
01/10:00am 8.2 0.5 5.3 82 1.3 W 35 50 19 27 1013.0 1013.1 0.2
01/09:58am 7.7 -0.5 4.7 81 1.3 W 37 50 20 27 1013.0 1013.1 0.2
01/09:51am 8.1 -3.9 4.5 78 1.6 WSW 57 76 31 41 1013.0 1013.1 0.2
01/09:50am 8.4 -4.8 4.4 76 1.8 W 63 76 34 41 1012.9 1013.0 0.0
01/09:48am 10.0 0.9 4.0 66 2.7 W 41 69 22 37 1012.8 1012.9 0.0
01/09:30am 10.2 3.0 4.8 69 2.4 W 32 39 17 21 1012.8 1012.9 0.0
01/09:00am 9.3 0.7 4.9 74 2.0 WSW 39 48 21 26 1012.7 1012.8 6.6
01/08:30am 7.7 -3.1 2.0 67 2.4 W 48 74 26 40 1012.3 1012.4 6.4
01/08:24am 9.3 -0.6 2.9 64 2.7 W 44 65 24 35 1012.0 1012.1 6.4
01/08:00am 9.6 -1.3 3.6 66 2.6 W 50 61 27 33 1011.4 1011.5 6.4
01/07:43am 7.9 -5.0 3.8 75 1.8 W 61 80 33 43 1011.2 1011.3 6.4
01/07:41am 7.8 -5.9 3.7 75 1.8 W 65 80 35 43 1011.1 1011.2 6.4
01/07:37am 8.8 -1.2 4.2 73 2.0 W 46 65 25 35 1011.2 1011.3 6.4
01/07:30am 7.8 -1.8 3.3 73 1.9 WSW 43 50 23 27 1011.2 1011.3 6.4
01/07:28am 7.4 -1.5 3.1 74 1.8 W 39 48 21 26 1011.2 1011.3 6.4
01/07:20am 7.4 -5.1 4.0 79 1.5 W 59 78 32 42 1011.1 1011.2 6.4
01/07:17am 8.1 -5.6 3.9 75 1.8 W 65 78 35 42 1010.7 1010.8 6.4
01/07:15am 9.8 -0.3 3.8 66 2.6 W 46 80 25 43 1010.9 1011.0 6.4
01/07:00am 9.0 0.2 3.4 68 2.4 W 39 50 21 27 1010.6 1010.7 6.4
01/06:35am 8.7 -0.8 3.7 71 2.2 W 43 61 23 33 1010.3 1010.4 6.4
01/06:30am 8.7 -2.3 2.9 67 2.5 W 50 63 27 34 1010.1 1010.2 6.4
01/06:11am 9.0 -0.3 3.0 66 2.6 WSW 41 59 22 32 1009.7 1009.7 6.4
01/06:00am 8.9 0.0 2.9 66 2.6 WSW 39 50 21 27 1009.5 1009.5 6.4
01/05:36am 8.3 -2.9 1.9 64 2.7 WSW 50 69 27 37 1008.9 1008.9 6.4
01/05:30am 8.4 -3.1 2.4 66 2.5 WSW 52 69 28 37 1008.7 1008.7 6.4
01/05:00am 8.4 -2.3 2.6 67 2.5 WSW 48 74 26 40 1007.8 1007.8 6.4
01/04:30am 7.6 -2.5 3.8 77 1.6 WSW 46 69 25 37 1007.4 1007.4 6.4
01/04:02am 8.3 -1.7 2.3 66 2.5 WSW 44 67 24 36 1006.6 1006.6 5.6
01/04:00am 8.4 -1.9 2.6 67 2.5 WSW 46 57 25 31 1006.5 1006.5 5.6
01/03:40am 7.8 -4.0 2.5 69 2.2 WSW 54 72 29 39 1005.9 1005.9 5.6
01/03:30am 8.0 -4.0 3.7 74 1.9 WSW 56 70 30 38 1005.9 1005.9 5.6
01/03:11am 7.2 -3.4 3.3 76 1.7 W 48 69 26 37 1005.7 1005.7 5.6
01/03:06am 6.3 -4.0 2.4 76 1.6 W 46 54 25 29 1005.6 1005.6 5.6
01/03:00am 6.6 -5.1 3.2 79 1.4 WSW 54 82 29 44 1005.5 1005.5 5.6
01/02:56am 6.6 -5.1 3.4 80 1.4 SW 54 72 29 39 1005.7 1005.7 5.6
01/02:55am 6.5 -5.9 2.8 77 1.5 SW 57 72 31 39 1005.7 1005.7 5.6
01/02:30am 6.3 -3.2 4.1 86 0.9 W 43 65 23 35 1005.2 1005.2 5.6
01/02:22am 6.8 -2.9 4.1 83 1.2 W 44 65 24 35 1005.2 1005.2 5.4
01/02:00am 7.1 -3.1 3.3 77 1.6 W 46 57 25 31 1004.3 1004.3 5.0
01/01:38am 6.0 -2.8 3.7 85 1.0 WNW 39 57 21 31 1004.4 1004.4 4.8
01/01:30am 6.0 -1.2 3.0 81 1.2 WNW 30 41 16 22 1004.2 1004.2 4.2
01/01:03am 6.6 -3.5 3.6 81 1.3 W 46 65 25 35 1004.2 1004.2 3.8
01/01:00am 6.7 -4.1 3.9 82 1.2 W 50 65 27 35 1004.1 1004.1 3.8
01/12:49am 7.2 -2.0 3.4 77 1.6 W 41 69 22 37 1003.7 1003.7 3.6
01/12:44am 7.1 0.0 3.7 79 1.5 W 30 50 16 27 1003.7 1003.7 3.6
01/12:30am 6.7 0.3 3.3 79 1.4 WNW 26 35 14 19 1003.5 1003.5 3.6
01/12:00am 6.6 0.2 3.4 80 1.4 WNW 26 33 14 18 1003.3 1003.3 3.6
 
Date/Time
EST
Temp
°C
App
Temp
°C
Dew
Point
Rel
Hum
%
Delta-T
°C
Wind Press
QNH
hPa
Press
MSL
hPa
Rain
since 9 am
mm
Dir
 
Spd
km/h
Gust
km/h
Spd
kts
Gust
kts
30/11:30pm 6.4 -1.4 3.0 79 1.4 W 33 39 18 21 1002.9 1002.9 3.4
30/11:00pm 6.2 -2.3 3.4 82 1.2 W 37 54 20 29 1002.2 1002.2 3.4
30/10:53pm 6.1 -3.7 3.6 84 1.1 W 44 54 24 29 1002.1 1002.1 3.4
30/10:50pm 6.0 -8.6 3.3 83 1.1 W 69 87 37 47 1002.2 1002.2 3.4
30/10:44pm 6.0 -10.0 2.5 78 1.4 W 76 87 41 47 1001.6 1001.7 3.2
30/10:42pm 6.9 -3.7 3.3 78 1.5 W 48 72 26 39 1001.7 1001.8 3.2
30/10:30pm 7.1 -2.7 3.2 76 1.6 W 44 56 24 30 1001.3 1001.4 3.0
30/10:00pm 7.4 -3.0 4.4 81 1.3 W 48 70 26 38 1001.1 1001.2 3.0
30/09:30pm 8.3 -1.5 3.2 70 2.2 W 44 65 24 35 1000.7 1000.8 2.6
30/09:00pm 8.1 -0.7 3.4 72 2.0 W 39 65 21 35 1000.1 1000.2 2.6
30/08:51pm 8.2 -1.5 4.0 75 1.8 W 44 65 24 35 999.9 1000.0 2.6
30/08:30pm 7.5 -2.1 4.6 82 1.3 W 44 56 24 30 999.2 999.3 2.4
30/08:00pm 7.6 -1.8 4.4 80 1.4 W 43 52 23 28 998.5 998.6 2.2
30/07:30pm 6.9 -3.2 3.5 79 1.4 W 46 56 25 30 998.0 998.1 2.0
30/07:11pm 7.3 -2.4 3.7 78 1.5 W 44 63 24 34 997.8 997.9 2.0
30/07:00pm 6.9 -2.9 3.3 78 1.5 W 44 52 24 28 996.9 997.0 2.0
30/06:38pm 6.7 -4.3 3.1 78 1.5 W 50 69 27 37 997.3 997.4 1.8
30/06:30pm 7.0 -3.6 3.1 76 1.6 W 48 59 26 32 997.3 997.4 1.8
30/06:00pm 7.0 -3.7 4.8 86 1.0 W 50 69 27 37 997.0 997.1 1.8
30/05:32pm 7.4 -2.4 5.2 86 1.0 W 46 65 25 35 996.2 996.3 1.6
30/05:30pm 7.5 -1.9 5.3 86 1.0 W 44 59 24 32 996.1 996.2 1.6
30/05:18pm 8.0 -3.4 5.1 82 1.3 W 54 72 29 39 995.3 995.3 1.2
30/05:14pm 8.4 -3.6 4.8 78 1.6 W 57 72 31 39 995.1 995.1 1.2
30/05:11pm 9.1 1.7 5.1 76 1.8 W 33 59 18 32 995.1 995.1 1.2
30/05:09pm 9.3 2.2 5.3 76 1.8 W 32 46 17 25 995.1 995.1 1.2
30/05:00pm 9.2 3.9 5.0 75 1.9 W 22 28 12 15 994.5 994.5 1.2
30/04:30pm 9.1 0.5 4.9 75 1.9 W 39 50 21 27 994.0 994.0 1.2
30/04:00pm 10.1 0.8 5.1 71 2.3 W 43 50 23 27 993.2 993.2 1.2
30/03:30pm 9.8 1.0 5.4 74 2.0 WNW 41 52 22 28 993.4 993.4 1.2
30/03:00pm 9.0 2.3 5.4 78 1.6 WNW 30 44 16 24 993.0 993.0 1.2
30/02:30pm 8.9 4.3 6.5 85 1.1 W 20 28 11 15 993.5 993.5 1.2
30/02:00pm 8.8 1.3 6.4 85 1.1 WSW 35 43 19 23 993.7 993.7 1.0
30/01:30pm 9.1 2.6 6.7 85 1.1 W 30 39 16 21 993.9 993.9 0.8
30/01:00pm 9.3 0.7 6.7 84 1.2 WSW 41 50 22 27 993.8 993.8 0.4
30/12:35pm 10.4 3.2 5.8 73 2.1 WSW 33 52 18 28 993.7 993.7 0.2
30/12:30pm 10.7 3.6 6.5 75 2.0 WSW 33 44 18 24 993.7 993.7 0.2
30/12:00pm 11.1 6.0 7.6 79 1.7 SW 24 35 13 19 994.1 994.1 0.2
30/11:30am 11.5 6.2 8.4 81 1.5 W 26 37 14 20 994.3 994.3 0.2
30/11:00am 10.9 4.0 8.7 86 1.1 WSW 35 44 19 24 994.7 994.7 0.2
30/10:30am 11.5 4.3 7.6 77 1.9 WSW 35 48 19 26 994.7 994.7 0.0
30/10:13am 12.6 5.8 7.1 69 2.7 WSW 32 50 17 27 994.7 994.7 0.0
30/10:12am 12.8 5.4 6.8 67 2.9 WSW 35 50 19 27 994.7 994.7 0.0
30/10:00am 15.6 6.6 7.1 57 4.2 WNW 44 74 24 40 994.4 994.4 0.0
30/09:56am 15.6 7.0 6.6 55 4.4 WNW 41 74 22 40 994.3 994.3 0.0
30/09:33am 16.7 9.0 7.1 53 4.8 NW 37 56 20 30 994.4 994.4 0.0
30/09:30am 15.9 7.7 6.6 54 4.6 WNW 39 56 21 30 994.5 994.5 0.0
30/09:18am 15.5 9.3 6.0 53 4.6 WNW 28 52 15 28 994.5 994.5 0.0
30/09:00am 15.6 10.5 6.1 53 4.6 NW 22 39 12 21 994.7 994.7 0.0
30/08:30am 15.7 11.6 6.2 53 4.6 N 17 28 9 15 994.8 994.8 0.0
30/08:00am 14.5 10.5 6.6 59 3.9 N 17 24 9 13 995.2 995.2 0.0
30/07:30am 13.8 9.8 6.7 62 3.4 N 17 32 9 17 995.5 995.5 0.0
30/07:00am 13.7 9.6 6.3 61 3.6 N 17 26 9 14 995.5 995.5 0.0
30/06:30am 13.7 9.6 6.1 60 3.6 N 17 22 9 12 995.8 995.8 0.0
30/06:00am 13.3 8.5 5.7 60 3.6 N 20 30 11 16 996.0 996.1 0.0
30/05:30am 13.1 8.5 5.5 60 3.6 NNW 19 30 10 16 995.9 996.0 0.0
30/05:00am 12.8 7.5 5.2 60 3.6 NNW 22 33 12 18 996.3 996.4 0.0
30/04:30am 12.8 7.9 5.0 59 3.6 NNW 20 33 11 18 996.8 996.9 0.0
30/04:00am 12.6 7.6 4.6 58 3.7 NNW 20 30 11 16 997.2 997.3 0.0
30/03:30am 13.2 6.7 4.6 56 4.0 NW 28 43 15 23 997.8 997.9 0.0
30/03:14am 13.4 5.6 4.8 56 4.0 NW 35 54 19 29 997.9 998.0 0.0
30/03:00am 13.7 5.1 4.8 55 4.2 NW 39 54 21 29 998.2 998.3 0.0
30/02:30am 13.6 6.4 5.0 56 4.0 NW 32 54 17 29 998.7 998.8 0.0
30/02:00am 13.4 6.6 5.3 58 3.8 NW 30 56 16 30 999.1 999.2 0.0
30/01:33am 13.7 6.9 5.3 57 3.9 NW 30 48 16 26 999.2 999.3 0.0
30/01:30am 13.7 7.3 5.1 56 4.0 NW 28 39 15 21 999.2 999.3 0.0
30/01:00am 13.9 3.7 5.3 56 4.1 NW 48 70 26 38 999.2 999.3 0.0
30/12:53am 13.7 4.3 5.6 58 3.8 NW 44 67 24 36 999.4 999.5 0.0
30/12:52am 13.7 4.6 5.8 59 3.7 NW 43 57 23 31 999.4 999.5 0.0
30/12:43am 13.9 0.5 5.5 57 4.0 NW 65 85 35 46 999.3 999.4 0.0
30/12:31am 13.4 4.3 5.8 60 3.6 NW 43 63 23 34 999.8 999.9 0.0
30/12:30am 13.3 4.3 6.2 62 3.4 NW 43 57 23 31 999.8 999.9 0.0
30/12:16am 13.2 3.6 6.1 62 3.4 NW 46 65 25 35 1000.2 1000.3 0.0
30/12:00am 13.7 2.8 5.6 58 3.9 NW 52 69 28 37 1000.1 1000.2 0.0
 
Date/Time
EST
Temp
°C
App
Temp
°C
Dew
Point
Rel
Hum
%
Delta-T
°C
Wind Press
QNH
hPa
Press
MSL
hPa
Rain
since 9 am
mm
Dir
 
Spd
km/h
Gust
km/h
Spd
kts
Gust
kts
29/11:37pm 13.7 4.0 5.6 58 3.8 NW 46 67 25 36 1000.1 1000.2 0.0
29/11:30pm 13.8 4.0 5.4 57 4.0 NW 46 61 25 33 1000.3 1000.4 0.0
29/11:09pm 14.0 6.4 5.6 57 4.0 NW 35 54 19 29 1000.7 1000.8 0.0
29/11:00pm 14.1 5.7 5.5 56 4.1 NW 39 52 21 28 1000.8 1000.9 0.0
29/10:49pm 14.3 6.2 5.4 55 4.2 NW 37 56 20 30 1000.9 1001.0 0.0
29/10:30pm 14.2 4.7 5.0 54 4.3 NW 44 59 24 32 1000.9 1001.0 0.0
29/10:00pm 13.9 5.3 4.8 54 4.3 NW 39 57 21 31 1001.0 1001.1 0.0
29/09:38pm 13.8 3.9 4.7 54 4.2 NW 46 65 25 35 1000.9 1001.0 0.0
29/09:30pm 13.9 3.2 4.5 53 4.3 NW 50 63 27 34 1000.8 1000.9 0.0
29/09:09pm 13.8 4.2 4.4 53 4.3 NW 44 63 24 34 1000.9 1001.0 0.0
29/09:00pm 13.7 4.1 4.3 53 4.3 NW 44 59 24 32 1000.9 1001.0 0.0
29/08:30pm 13.6 2.4 4.2 53 4.3 NW 52 72 28 39 1000.8 1000.9 0.0
29/08:05pm 13.5 3.1 4.1 53 4.3 NW 48 67 26 36 1000.9 1001.0 0.0
29/08:00pm 13.5 2.7 4.1 53 4.3 NW 50 67 27 36 1000.8 1000.9 0.0
29/07:30pm 13.7 1.7 3.5 50 4.6 NW 56 78 30 42 1000.9 1001.0 0.0
29/07:24pm 13.7 3.2 3.5 50 4.6 NW 48 74 26 40 1000.7 1000.8 0.0
29/07:16pm 13.6 5.2 3.7 51 4.5 NW 37 56 20 30 1001.0 1001.1 0.0
29/07:15pm 13.7 5.6 3.5 50 4.6 NW 35 46 19 25 1000.9 1001.0 0.0
29/07:00pm 13.9 1.2 2.8 47 5.0 WNW 59 78 32 42 1000.8 1000.9 0.0
29/06:30pm 14.0 1.4 3.5 49 4.8 WNW 59 87 32 47 1000.7 1000.8 0.0
29/06:00pm 14.2 2.9 3.4 48 4.9 NW 52 70 28 38 1001.0 1001.1 0.0
29/05:30pm 14.3 2.2 3.2 47 5.0 NW 56 83 30 45 1000.7 1000.8 0.0
29/05:25pm 14.4 3.8 3.2 47 5.1 NW 48 83 26 45 1001.0 1001.1 0.0
29/05:17pm 14.2 4.7 3.9 50 4.7 NW 43 61 23 33 1001.2 1001.3 0.0
29/05:00pm 14.3 4.7 3.2 47 5.0 NW 43 52 23 28 1001.1 1001.2 0.0
29/04:57pm 14.4 4.6 3.2 47 5.1 NW 44 52 24 28 1001.2 1001.3 0.0
29/04:30pm 15.1 1.0 1.6 40 5.9 NW 65 85 35 46 1000.7 1000.8 0.0
29/04:27pm 15.3 0.7 0.7 37 6.3 NW 67 85 36 46 1000.7 1000.8 0.0
29/04:26pm 15.4 0.4 0.8 37 6.3 NW 69 85 37 46 1000.6 1000.7 0.0
29/04:00pm 15.2 5.1 3.7 46 5.3 NW 46 67 25 36 1000.8 1000.9 0.0
29/03:30pm 15.9 6.7 3.7 44 5.6 WNW 41 59 22 32 1001.0 1001.1 0.0
29/03:21pm 16.4 8.0 3.5 42 6.0 WNW 37 57 20 31 1001.1 1001.2 0.0
29/03:20pm 16.2 8.1 3.3 42 5.9 WNW 35 46 19 25 1001.2 1001.3 0.0
29/03:00pm 16.0 3.9 3.1 42 5.9 NW 56 78 30 42 1001.2 1001.3 0.0
29/02:57pm 15.9 3.3 3.7 44 5.6 NW 59 78 32 42 1000.8 1000.9 0.0
29/02:54pm 16.0 2.5 3.1 42 5.9 NW 63 78 34 42 1000.8 1000.9 0.0
29/02:30pm 16.0 6.2 2.4 40 6.1 NW 43 63 23 34 1000.9 1001.0 0.0
29/02:00pm 15.6 4.2 3.1 43 5.7 NW 52 82 28 44 1000.7 1000.8 0.0
29/01:44pm 15.3 5.9 2.1 41 5.9 NW 41 65 22 35 1000.7 1000.8 0.0
29/01:43pm 15.3 7.4 4.1 47 5.2 NW 35 48 19 26 1000.7 1000.8 0.0
29/01:33pm 15.5 3.4 3.0 43 5.7 NW 56 74 30 40 1000.5 1000.6 0.0
29/01:30pm 15.4 2.3 3.2 44 5.6 WNW 61 74 33 40 1000.3 1000.4 0.0
29/01:29pm 15.4 2.3 2.9 43 5.7 NW 61 74 33 40 1000.4 1000.5 0.0
29/01:00pm 16.2 7.3 2.9 41 6.1 WNW 39 61 21 33 1002.0 1002.0 0.0
29/12:52pm 16.2 7.9 2.2 39 6.3 WNW 35 57 19 31 1001.9 1001.9 0.0
29/12:30pm 16.4 10.2 4.1 44 5.7 WNW 26 35 14 19 1002.5 1002.5 0.0
29/12:00pm 14.8 7.4 2.0 42 5.7 WNW 30 41 16 22 1002.9 1002.9 0.0
29/11:33am 13.5 6.7 3.0 49 4.7 WNW 28 52 15 28 1002.8 1002.8 0.0
29/11:30am 13.8 7.7 2.7 47 4.9 NW 24 41 13 22 1002.9 1002.9 0.0
29/11:04am 14.0 3.7 2.9 47 5.0 WNW 46 65 25 35 1002.5 1002.5 0.0
29/11:00am 13.9 2.9 3.1 48 4.9 WNW 50 65 27 35 1002.3 1002.3 0.0
29/10:36am 13.5 3.6 4.6 55 4.1 W 46 65 25 35 1002.5 1002.5 0.0
29/10:30am 12.7 1.0 3.1 52 4.3 W 54 65 29 35 1002.6 1002.6 0.0
29/10:28am 12.9 0.9 3.6 53 4.2 W 56 65 30 35 1002.4 1002.4 0.0
29/10:03am 13.6 6.9 3.9 52 4.4 WNW 28 46 15 25 1002.8 1002.8 0.0
29/10:00am 13.2 6.7 4.6 56 4.0 WNW 28 41 15 22 1002.9 1002.9 0.0
29/09:31am 12.5 5.9 4.0 56 3.8 WNW 28 48 15 26 1002.6 1002.6 0.0
29/09:30am 12.4 6.3 4.6 59 3.6 WNW 26 35 14 19 1002.7 1002.7 0.0
29/09:00am 11.7 2.7 4.4 61 3.3 WNW 41 52 22 28 1002.5 1002.5 1.2
29/08:32am 10.9 0.8 3.7 61 3.2 WNW 46 69 25 37 1002.2 1002.2 1.2
29/08:30am 10.8 0.3 3.4 60 3.3 WNW 48 59 26 32 1002.2 1002.2 1.2
29/08:14am 11.7 3.6 3.5 57 3.6 WNW 35 54 19 29 1001.6 1001.7 1.2
29/08:00am 11.6 3.6 3.6 58 3.6 WNW 35 44 19 24 1001.2 1001.3 1.2
29/07:30am 10.9 1.6 3.0 58 3.4 WNW 41 54 22 29 1001.1 1001.2 1.2
29/07:09am 10.5 2.4 3.3 61 3.1 WNW 35 54 19 29 1000.6 1000.7 1.2
29/07:00am 10.5 1.7 3.5 62 3.1 WNW 39 52 21 28 1000.3 1000.4 1.2
29/06:30am 10.3 2.8 4.7 68 2.5 WNW 33 41 18 22 999.9 1000.0 1.2

Other Formats:

Comma delimited format used in spreadsheet applications
http://www.bom.gov.au/fwo/IDT60801/IDT60801.95967.axf

JavaScript Object Notation format (JSON) in row-major order
http://www.bom.gov.au/fwo/IDT60801/IDT60801.95967.json